Time,TemperatureF,DewpointF,PressureIn,WindDirection,WindDirectionDegrees,WindSpeedMPH,WindSpeedGustMPH,Humidity,HourlyPrecipIn,Conditions,Clouds,dailyrainin,SoftwareType,DateUTC
2013-05-25 00:04:00,47.3,36.9,30.00,North,0,0.0,0.0,67,0.00,,---,0.00,VWS V14.01,2013-05-25 07:04:00,
2013-05-25 00:09:00,47.3,36.5,30.00,North,0,0.0,0.0,66,0.00,,---,0.00,VWS V14.01,2013-05-25 07:09:00,
2013-05-25 00:14:00,47.3,36.5,30.00,North,0,0.0,0.0,66,0.00,,---,0.00,VWS V14.01,2013-05-25 07:14:00,
2013-05-25 00:19:00,47.3,36.5,30.00,North,0,0.0,0.0,66,0.00,,---,0.00,VWS V14.01,2013-05-25 07:19:00,
2013-05-25 00:24:00,47.3,36.5,30.00,East,90,2.5,2.5,66,0.00,,---,0.00,VWS V14.01,2013-05-25 07:24:00,
2013-05-25 00:29:00,47.3,36.5,30.00,NNW,338,0.0,0.0,66,0.00,,---,0.00,VWS V14.01,2013-05-25 07:29:00,
2013-05-25 00:34:00,47.1,36.7,29.97,SSE,158,0.0,0.0,67,0.00,,---,0.00,VWS V14.01,2013-05-25 07:34:00,
2013-05-25 00:40:00,46.9,36.6,29.97,ENE,68,2.5,2.5,67,0.00,,---,0.00,VWS V14.01,2013-05-25 07:40:00,
2013-05-25 00:45:00,46.8,36.8,29.97,SE,135,1.3,1.3,68,0.00,,---,0.00,VWS V14.01,2013-05-25 07:45:00,
2013-05-25 00:50:00,46.8,36.4,30.00,East,90,2.0,2.0,67,0.00,,---,0.00,VWS V14.01,2013-05-25 07:50:00,
2013-05-25 00:55:00,46.4,36.0,30.00,SSE,158,0.0,0.0,67,0.00,,---,0.00,VWS V14.01,2013-05-25 07:55:00,
2013-05-25 01:00:00,46.2,35.9,30.00,SSW,202,0.0,0.0,67,0.00,,---,0.00,VWS V14.01,2013-05-25 08:00:00,
2013-05-25 01:05:00,45.9,35.9,30.00,ESE,112,2.7,2.7,68,0.00,,---,0.00,VWS V14.01,2013-05-25 08:05:00,
2013-05-25 01:10:00,45.9,36.3,30.00,East,90,4.7,4.7,69,0.00,,---,0.00,VWS V14.01,2013-05-25 08:10:00,
2013-05-25 01:15:00,45.5,36.3,30.00,SE,135,1.6,1.6,70,0.00,,---,0.00,VWS V14.01,2013-05-25 08:15:00,
2013-05-25 01:20:00,45.3,35.8,30.00,South,180,0.0,0.0,69,0.00,,---,0.00,VWS V14.01,2013-05-25 08:20:00,
2013-05-25 01:25:00,44.8,35.2,30.00,SW,225,0.0,0.0,69,0.00,,---,0.00,VWS V14.01,2013-05-25 08:25:00,
2013-05-25 01:30:00,44.2,34.7,30.00,SW,225,0.0,0.0,69,0.00,,---,0.00,VWS V14.01,2013-05-25 08:30:00,
2013-05-25 01:35:00,44.2,34.7,30.00,SW,225,0.0,0.0,69,0.00,,---,0.00,VWS V14.01,2013-05-25 08:35:00,
2013-05-25 01:40:00,43.3,34.2,30.00,SW,225,0.0,0.0,70,0.00,,---,0.00,VWS V14.01,2013-05-25 08:40:00,
2013-05-25 01:45:00,42.8,34.1,30.00,SW,225,0.0,0.0,71,0.00,,---,0.00,VWS V14.01,2013-05-25 08:45:00,
2013-05-25 01:51:00,42.6,34.6,30.00,SW,225,0.0,0.0,73,0.00,,---,0.00,VWS V14.01,2013-05-25 08:51:00,
2013-05-25 01:56:00,42.3,34.2,30.00,SW,225,0.0,0.0,73,0.00,,---,0.00,VWS V14.01,2013-05-25 08:56:00,
2013-05-25 02:01:00,42.1,34.4,30.00,SW,225,0.0,0.0,74,0.00,,---,0.00,VWS V14.01,2013-05-25 09:01:00,
2013-05-25 02:06:00,41.7,34.1,30.00,SW,225,0.0,0.0,74,0.00,,---,0.00,VWS V14.01,2013-05-25 09:06:00,
2013-05-25 02:11:00,41.5,34.2,30.00,SW,225,0.0,0.0,75,0.00,,---,0.00,VWS V14.01,2013-05-25 09:11:00,
2013-05-25 02:16:00,41.4,34.0,30.00,SW,225,0.0,0.0,75,0.00,,---,0.00,VWS V14.01,2013-05-25 09:16:00,
2013-05-25 02:21:00,41.2,34.2,30.00,SW,225,0.0,0.0,76,0.00,,---,0.00,VWS V14.01,2013-05-25 09:21:00,
2013-05-25 02:26:00,40.6,34.0,30.00,SW,225,0.0,0.0,77,0.00,,---,0.00,VWS V14.01,2013-05-25 09:26:00,
2013-05-25 02:31:00,40.3,33.3,30.00,SW,225,0.0,0.0,76,0.00,,---,0.00,VWS V14.01,2013-05-25 09:31:00,
2013-05-25 02:36:00,40.3,33.7,30.00,SW,225,0.0,0.0,77,0.00,,---,0.00,VWS V14.01,2013-05-25 09:36:00,
2013-05-25 02:41:00,40.3,34.0,30.00,SW,225,0.0,0.0,78,0.00,,---,0.00,VWS V14.01,2013-05-25 09:41:00,
2013-05-25 02:46:00,39.9,33.6,29.97,SW,225,0.0,0.0,78,0.00,,---,0.00,VWS V14.01,2013-05-25 09:46:00,
2013-05-25 02:51:00,39.7,33.5,29.97,SW,225,0.0,0.0,78,0.00,,---,0.00,VWS V14.01,2013-05-25 09:51:00,
2013-05-25 02:56:00,39.6,33.6,29.97,SW,225,0.0,0.0,79,0.00,,---,0.00,VWS V14.01,2013-05-25 09:56:00,
2013-05-25 03:01:00,39.4,33.4,30.00,SW,225,0.0,0.0,79,0.00,,---,0.00,VWS V14.01,2013-05-25 10:01:00,
2013-05-25 03:06:00,39.4,33.7,30.00,SW,225,0.0,0.0,80,0.00,,---,0.00,VWS V14.01,2013-05-25 10:06:00,
2013-05-25 03:11:00,39.4,34.0,30.00,South,180,0.0,0.0,81,0.00,,---,0.00,VWS V14.01,2013-05-25 10:11:00,
2013-05-25 03:17:00,39.2,34.2,30.00,South,180,0.0,0.0,82,0.00,,---,0.00,VWS V14.01,2013-05-25 10:17:00,
2013-05-25 03:22:00,39.2,34.5,30.00,South,180,0.0,0.0,83,0.00,,---,0.00,VWS V14.01,2013-05-25 10:22:00,
2013-05-25 03:27:00,39.0,34.6,30.00,SSW,202,0.0,0.0,84,0.00,,---,0.00,VWS V14.01,2013-05-25 10:27:00,
2013-05-25 03:32:00,38.8,34.1,30.00,SSW,202,0.0,0.0,83,0.00,,---,0.00,VWS V14.01,2013-05-25 10:32:00,
2013-05-25 03:37:00,38.7,34.0,30.00,SW,225,0.0,0.0,83,0.00,,---,0.00,VWS V14.01,2013-05-25 10:37:00,
2013-05-25 03:42:00,38.8,34.4,30.00,SW,225,0.0,0.0,84,0.00,,---,0.00,VWS V14.01,2013-05-25 10:42:00,
2013-05-25 03:47:00,38.8,34.4,30.00,SW,225,0.0,0.0,84,0.00,,---,0.00,VWS V14.01,2013-05-25 10:47:00,
2013-05-25 03:52:00,38.8,34.7,30.00,SW,225,0.0,0.0,85,0.00,,---,0.00,VWS V14.01,2013-05-25 10:52:00,
2013-05-25 03:57:00,38.7,34.2,30.00,SW,225,0.0,0.0,84,0.00,,---,0.00,VWS V14.01,2013-05-25 10:57:00,
2013-05-25 04:02:00,38.8,34.4,30.00,SW,225,0.0,0.0,84,0.00,,---,0.00,VWS V14.01,2013-05-25 11:02:00,
2013-05-25 04:07:00,38.7,34.5,30.00,SW,225,0.0,0.0,85,0.00,,---,0.00,VWS V14.01,2013-05-25 11:07:00,
2013-05-25 04:12:00,38.5,34.4,30.00,SW,225,0.0,0.0,85,0.00,,---,0.00,VWS V14.01,2013-05-25 11:12:00,
2013-05-25 04:17:00,38.3,33.9,30.00,SW,225,0.0,0.0,84,0.00,,---,0.00,VWS V14.01,2013-05-25 11:17:00,
2013-05-25 04:22:00,38.3,34.2,30.00,South,180,0.0,0.0,85,0.00,,---,0.00,VWS V14.01,2013-05-25 11:22:00,
2013-05-25 04:27:00,38.3,34.5,30.00,SSW,202,0.0,0.0,86,0.00,,---,0.00,VWS V14.01,2013-05-25 11:27:00,
2013-05-25 04:33:00,38.1,34.0,30.00,SSW,202,0.0,0.0,85,0.00,,---,0.00,VWS V14.01,2013-05-25 11:33:00,
2013-05-25 04:38:00,37.9,33.8,30.00,SSW,202,0.0,0.0,85,0.00,,---,0.00,VWS V14.01,2013-05-25 11:38:00,
2013-05-25 04:43:00,37.9,34.1,30.00,SW,225,0.0,0.0,86,0.00,,---,0.00,VWS V14.01,2013-05-25 11:43:00,
2013-05-25 04:48:00,37.9,34.1,30.00,SW,225,0.0,0.0,86,0.00,,---,0.00,VWS V14.01,2013-05-25 11:48:00,
2013-05-25 04:53:00,37.9,34.1,30.00,SW,225,0.0,0.0,86,0.00,,---,0.00,VWS V14.01,2013-05-25 11:53:00,
2013-05-25 04:58:00,37.9,34.1,30.00,SSW,202,0.0,0.0,86,0.00,,---,0.00,VWS V14.01,2013-05-25 11:58:00,
2013-05-25 05:03:00,37.8,34.2,30.00,SSW,202,0.0,0.0,87,0.00,,---,0.00,VWS V14.01,2013-05-25 12:03:00,
2013-05-25 05:08:00,37.8,34.2,30.00,SSW,202,0.0,0.0,87,0.00,,---,0.00,VWS V14.01,2013-05-25 12:08:00,
2013-05-25 05:13:00,37.8,34.2,30.00,SSW,202,0.0,0.0,87,0.00,,---,0.00,VWS V14.01,2013-05-25 12:13:00,
2013-05-25 05:18:00,37.8,34.2,30.03,SSW,202,0.0,0.0,87,0.00,,---,0.00,VWS V14.01,2013-05-25 12:18:00,
2013-05-25 05:23:00,37.9,34.4,30.03,SW,225,0.0,0.0,87,0.00,,---,0.00,VWS V14.01,2013-05-25 12:23:00,
2013-05-25 05:28:00,38.1,34.6,30.03,SW,225,0.0,0.0,87,0.00,,---,0.00,VWS V14.01,2013-05-25 12:28:00,
2013-05-25 05:33:00,38.5,35.2,30.00,SW,225,0.0,0.0,88,0.00,,---,0.00,VWS V14.01,2013-05-25 12:33:00,
2013-05-25 05:38:00,39.2,36.0,30.00,SW,225,0.0,0.0,88,0.00,,---,0.00,VWS V14.01,2013-05-25 12:38:00,
2013-05-25 05:43:00,39.4,36.1,30.00,SW,225,0.0,0.0,88,0.00,,---,0.00,VWS V14.01,2013-05-25 12:43:00,
2013-05-25 05:49:00,40.8,38.1,30.00,SW,225,0.0,0.0,90,0.00,,---,0.00,VWS V14.01,2013-05-25 12:49:00,
2013-05-25 05:54:00,41.2,38.5,30.00,SW,225,0.0,0.0,90,0.00,,---,0.00,VWS V14.01,2013-05-25 12:54:00,
2013-05-25 05:59:00,41.2,38.5,30.00,WSW,248,0.0,0.0,90,0.00,,---,0.00,VWS V14.01,2013-05-25 12:59:00,
2013-05-25 06:04:00,41.2,38.5,30.00,WSW,248,0.0,0.0,90,0.00,,---,0.00,VWS V14.01,2013-05-25 13:04:00,
2013-05-25 06:09:00,41.0,37.7,30.03,WSW,248,0.0,0.0,88,0.00,,---,0.00,VWS V14.01,2013-05-25 13:09:00,
2013-05-25 06:14:00,40.6,37.1,30.03,SSW,202,0.0,0.0,87,0.00,,---,0.00,VWS V14.01,2013-05-25 13:14:00,
2013-05-25 06:19:00,41.4,37.8,30.03,SSW,202,0.0,0.0,87,0.00,,---,0.00,VWS V14.01,2013-05-25 13:19:00,
2013-05-25 06:24:00,42.1,38.5,30.03,SSW,202,0.0,0.0,87,0.00,,---,0.00,VWS V14.01,2013-05-25 13:24:00,
2013-05-25 06:29:00,42.1,38.5,30.03,SW,225,0.0,0.0,87,0.00,,---,0.00,VWS V14.01,2013-05-25 13:29:00,
2013-05-25 06:34:00,42.3,38.7,30.06,SW,225,0.0,0.0,87,0.00,,---,0.00,VWS V14.01,2013-05-25 13:34:00,
2013-05-25 06:39:00,42.6,38.7,30.06,SW,225,0.0,0.0,86,0.00,,---,0.00,VWS V14.01,2013-05-25 13:39:00,
2013-05-25 06:44:00,43.0,39.1,30.06,SW,225,0.0,0.0,86,0.00,,---,0.00,VWS V14.01,2013-05-25 13:44:00,
2013-05-25 06:49:00,44.2,40.3,30.06,SW,225,0.0,0.0,86,0.00,,---,0.00,VWS V14.01,2013-05-25 13:49:00,
2013-05-25 06:54:00,44.8,40.5,30.06,SW,225,0.0,0.0,85,0.00,,---,0.00,VWS V14.01,2013-05-25 13:54:00,
2013-05-25 07:00:00,48.7,44.4,30.06,SW,225,0.0,0.0,85,0.00,,---,0.00,VWS V14.01,2013-05-25 14:00:00,
2013-05-25 07:05:00,49.3,44.7,30.06,SSE,158,0.0,0.0,84,0.00,,---,0.00,VWS V14.01,2013-05-25 14:05:00,
2013-05-25 07:10:00,48.9,41.7,30.06,South,180,0.0,0.0,76,0.00,,---,0.00,VWS V14.01,2013-05-25 14:10:00,
2013-05-25 07:15:00,49.1,41.5,30.06,South,180,0.0,0.0,75,0.00,,---,0.00,VWS V14.01,2013-05-25 14:15:00,
2013-05-25 07:20:00,50.7,42.8,30.03,North,0,0.0,0.0,74,0.00,,---,0.00,VWS V14.01,2013-05-25 14:20:00,
2013-05-25 07:25:00,51.8,42.3,30.03,North,0,0.0,0.0,70,0.00,,---,0.00,VWS V14.01,2013-05-25 14:25:00,
2013-05-25 07:30:00,53.8,43.5,30.03,East,90,2.7,2.7,68,0.00,,---,0.00,VWS V14.01,2013-05-25 14:30:00,
2013-05-25 07:35:00,55.4,43.8,30.06,NE,45,3.1,3.1,65,0.00,,---,0.00,VWS V14.01,2013-05-25 14:35:00,
2013-05-25 07:40:00,56.3,42.6,30.06,NNW,338,0.0,0.0,60,0.00,,---,0.00,VWS V14.01,2013-05-25 14:40:00,
2013-05-25 07:45:00,56.8,43.1,30.03,NNW,338,0.0,0.0,60,0.00,,---,0.00,VWS V14.01,2013-05-25 14:45:00,
2013-05-25 07:50:00,58.5,42.8,30.03,North,0,0.0,0.0,56,0.00,,---,0.00,VWS V14.01,2013-05-25 14:50:00,
2013-05-25 07:55:00,59.7,43.1,30.03,WNW,292,0.0,0.0,54,0.00,,---,0.00,VWS V14.01,2013-05-25 14:55:00,
2013-05-25 08:00:00,59.9,41.8,30.03,WNW,292,0.0,0.0,51,0.00,,---,0.00,VWS V14.01,2013-05-25 15:00:00,
2013-05-25 08:05:00,60.1,38.1,30.03,SW,225,1.6,1.6,44,0.00,,---,0.00,VWS V14.01,2013-05-25 15:05:00,
2013-05-25 08:10:00,61.3,41.0,30.03,WSW,248,0.0,0.0,47,0.00,,---,0.00,VWS V14.01,2013-05-25 15:10:00,
2013-05-25 08:16:00,59.7,37.8,30.03,WNW,292,0.9,0.9,44,0.00,,---,0.00,VWS V14.01,2013-05-25 15:16:00,
2013-05-25 08:21:00,59.4,37.5,30.03,SW,225,2.5,2.5,44,0.00,,---,0.00,VWS V14.01,2013-05-25 15:21:00,
2013-05-25 08:26:00,58.5,37.8,30.03,WSW,248,0.0,0.0,46,0.00,,---,0.00,VWS V14.01,2013-05-25 15:26:00,
2013-05-25 08:31:00,56.8,36.3,30.03,West,270,1.1,1.1,46,0.00,,---,0.00,VWS V14.01,2013-05-25 15:31:00,
2013-05-25 08:36:00,56.1,36.2,30.03,West,270,0.0,0.0,47,0.00,,---,0.00,VWS V14.01,2013-05-25 15:36:00,
2013-05-25 08:41:00,55.9,36.5,30.03,WSW,248,2.0,2.0,48,0.00,,---,0.00,VWS V14.01,2013-05-25 15:41:00,
2013-05-25 08:46:00,56.1,36.7,30.06,SW,225,3.4,3.4,48,0.00,,---,0.00,VWS V14.01,2013-05-25 15:46:00,
2013-05-25 08:51:00,55.9,36.5,30.06,WSW,248,0.0,0.0,48,0.00,,---,0.00,VWS V14.01,2013-05-25 15:51:00,
2013-05-25 08:56:00,57.2,37.7,30.06,West,270,1.6,1.6,48,0.00,,---,0.00,VWS V14.01,2013-05-25 15:56:00,
2013-05-25 09:01:00,56.1,36.7,30.06,SW,225,1.6,1.6,48,0.00,,---,0.00,VWS V14.01,2013-05-25 16:01:00,
2013-05-25 09:06:00,56.1,36.7,30.06,WSW,248,2.0,2.0,48,0.00,,---,0.00,VWS V14.01,2013-05-25 16:06:00,
2013-05-25 09:11:00,56.3,36.9,30.06,WSW,248,2.0,2.0,48,0.00,,---,0.00,VWS V14.01,2013-05-25 16:11:00,
2013-05-25 09:16:00,56.3,37.4,30.06,WNW,292,0.0,0.0,49,0.00,,---,0.00,VWS V14.01,2013-05-25 16:16:00,
2013-05-25 09:22:00,55.2,35.9,30.06,WSW,248,2.2,2.2,48,0.00,,---,0.00,VWS V14.01,2013-05-25 16:22:00,
2013-05-25 09:27:00,55.2,36.4,30.06,WSW,248,3.1,3.1,49,0.00,,---,0.00,VWS V14.01,2013-05-25 16:27:00,
2013-05-25 09:32:00,55.4,36.6,30.06,WSW,248,1.6,1.6,49,0.00,,---,0.00,VWS V14.01,2013-05-25 16:32:00,
2013-05-25 09:37:00,55.9,36.5,30.06,WNW,292,0.0,0.0,48,0.00,,---,0.00,VWS V14.01,2013-05-25 16:37:00,
2013-05-25 09:42:00,57.2,37.7,30.06,WNW,292,0.0,0.0,48,0.00,,---,0.00,VWS V14.01,2013-05-25 16:42:00,
2013-05-25 09:47:00,58.8,39.2,30.03,WSW,248,0.0,0.0,48,0.00,,---,0.00,VWS V14.01,2013-05-25 16:47:00,
2013-05-25 09:52:00,63.9,42.1,30.03,SW,225,0.0,0.0,45,0.00,,---,0.00,VWS V14.01,2013-05-25 16:52:00,
2013-05-25 09:57:00,65.5,41.8,30.03,WSW,248,2.9,2.9,42,0.00,,---,0.00,VWS V14.01,2013-05-25 16:57:00,
2013-05-25 10:02:00,61.7,37.2,30.03,West,270,1.6,1.6,40,0.00,,---,0.00,VWS V14.01,2013-05-25 17:02:00,
2013-05-25 10:07:00,58.3,34.7,30.03,WSW,248,4.0,4.0,41,0.00,,---,0.00,VWS V14.01,2013-05-25 17:07:00,
2013-05-25 10:12:00,56.8,35.7,30.03,SW,225,0.0,0.0,45,0.00,,---,0.00,VWS V14.01,2013-05-25 17:12:00,
2013-05-25 10:17:00,56.5,36.0,30.06,SW,225,2.5,2.5,46,0.00,,---,0.00,VWS V14.01,2013-05-25 17:17:00,
2013-05-25 10:22:00,55.9,35.5,30.06,SW,225,3.8,3.8,46,0.00,,---,0.00,VWS V14.01,2013-05-25 17:22:00,
2013-05-25 10:27:00,54.9,35.6,30.06,WSW,248,3.1,3.1,48,0.00,,---,0.00,VWS V14.01,2013-05-25 17:27:00,
2013-05-25 10:32:00,54.9,36.1,30.06,WSW,248,0.0,0.0,49,0.00,,---,0.00,VWS V14.01,2013-05-25 17:32:00,
2013-05-25 10:38:00,55.2,36.4,30.06,SW,225,2.0,2.0,49,0.00,,---,0.00,VWS V14.01,2013-05-25 17:38:00,
2013-05-25 10:43:00,55.4,36.6,30.06,SW,225,2.5,2.5,49,0.00,,---,0.00,VWS V14.01,2013-05-25 17:43:00,
2013-05-25 10:48:00,56.3,37.4,30.03,WSW,248,0.0,0.0,49,0.00,,---,0.00,VWS V14.01,2013-05-25 17:48:00,
2013-05-25 10:53:00,57.0,38.1,30.03,WSW,248,0.0,0.0,49,0.00,,---,0.00,VWS V14.01,2013-05-25 17:53:00,
2013-05-25 10:58:00,57.2,37.7,30.03,WSW,248,0.0,0.0,48,0.00,,---,0.00,VWS V14.01,2013-05-25 17:58:00,
2013-05-25 11:03:00,57.9,37.3,30.06,WSW,248,0.0,0.0,46,0.00,,---,0.00,VWS V14.01,2013-05-25 18:03:00,
2013-05-25 11:08:00,58.3,37.6,30.06,SW,225,2.0,2.0,46,0.00,,---,0.00,VWS V14.01,2013-05-25 18:08:00,
2013-05-25 11:13:00,60.3,39.4,30.06,NNE,22,0.0,0.0,46,0.00,,---,0.00,VWS V14.01,2013-05-25 18:13:00,
2013-05-25 11:18:00,60.8,39.3,30.03,WNW,292,0.0,0.0,45,0.00,,---,0.00,VWS V14.01,2013-05-25 18:18:00,
2013-05-25 11:23:00,62.4,40.2,30.03,WSW,248,0.0,0.0,44,0.00,,---,0.00,VWS V14.01,2013-05-25 18:23:00,
2013-05-25 11:28:00,61.7,38.4,30.03,SSW,202,0.0,0.0,42,0.00,,---,0.00,VWS V14.01,2013-05-25 18:28:00,
2013-05-25 11:33:00,62.2,37.0,30.03,SW,225,2.2,2.2,39,0.00,,---,0.00,VWS V14.01,2013-05-25 18:33:00,
2013-05-25 11:38:00,64.6,40.4,30.03,SSW,202,2.5,2.5,41,0.00,,---,0.00,VWS V14.01,2013-05-25 18:38:00,
2013-05-25 11:43:00,64.4,38.9,30.03,South,180,5.4,5.4,39,0.00,,---,0.00,VWS V14.01,2013-05-25 18:43:00,
2013-05-25 11:48:00,64.4,38.3,30.03,WSW,248,0.0,0.0,38,0.00,,---,0.00,VWS V14.01,2013-05-25 18:48:00,
2013-05-25 11:53:00,63.9,37.8,30.03,WSW,248,0.0,0.0,38,0.00,,---,0.00,VWS V14.01,2013-05-25 18:53:00,
2013-05-25 11:59:00,63.0,37.0,30.03,West,270,1.6,1.6,38,0.00,,---,0.00,VWS V14.01,2013-05-25 18:59:00,
2013-05-25 12:04:00,61.9,36.0,30.00,WSW,248,0.0,0.0,38,0.00,,---,0.00,VWS V14.01,2013-05-25 19:04:00,
2013-05-25 12:09:00,63.5,37.5,30.00,SW,225,2.7,2.7,38,0.00,,---,0.00,VWS V14.01,2013-05-25 19:09:00,
2013-05-25 12:14:00,63.5,37.5,30.00,WNW,292,1.3,1.3,38,0.00,,---,0.00,VWS V14.01,2013-05-25 19:14:00,
2013-05-25 12:19:00,64.8,37.9,30.00,West,270,0.0,0.0,37,0.00,,---,0.00,VWS V14.01,2013-05-25 19:19:00,
2013-05-25 12:24:00,64.8,37.9,30.00,WNW,292,0.0,0.0,37,0.00,,---,0.00,VWS V14.01,2013-05-25 19:24:00,
2013-05-25 12:29:00,65.7,37.3,30.00,SSW,202,3.8,3.8,35,0.00,,---,4.46,VWS V14.01,2013-05-25 19:29:00,
2013-05-25 12:34:00,65.3,37.0,30.03,WNW,292,0.0,0.0,35,0.00,,---,0.00,VWS V14.01,2013-05-25 19:34:00,
2013-05-25 12:39:00,65.7,36.6,30.03,SW,225,0.0,0.0,34,0.00,,---,0.00,VWS V14.01,2013-05-25 19:39:00,
2013-05-25 12:44:00,66.6,37.3,30.03,West,270,0.0,0.0,34,0.00,,---,0.00,VWS V14.01,2013-05-25 19:44:00,
2013-05-25 12:49:00,66.4,37.2,30.00,West,270,3.1,3.1,34,0.00,,---,0.00,VWS V14.01,2013-05-25 19:49:00,
2013-05-25 12:54:00,65.5,36.4,30.00,WSW,248,1.1,1.1,34,0.00,,---,0.00,VWS V14.01,2013-05-25 19:54:00,
2013-05-25 12:59:00,64.8,36.5,30.00,SSW,202,5.4,5.4,35,0.00,,---,0.00,VWS V14.01,2013-05-25 19:59:00,
2013-05-25 13:04:00,63.1,35.1,30.00,West,270,1.3,1.3,35,0.00,,---,0.00,VWS V14.01,2013-05-25 20:04:00,
2013-05-25 13:10:00,63.3,35.9,30.00,SW,225,3.1,3.1,36,0.00,,---,0.00,VWS V14.01,2013-05-25 20:10:00,
2013-05-25 13:15:00,64.9,36.7,30.00,SW,225,1.6,1.6,35,0.00,,---,0.00,VWS V14.01,2013-05-25 20:15:00,
2013-05-25 13:20:00,64.9,35.9,30.00,South,180,0.0,0.0,34,0.00,,---,0.00,VWS V14.01,2013-05-25 20:20:00,
2013-05-25 13:25:00,65.5,37.1,30.00,WSW,248,0.0,0.0,35,0.00,,---,0.00,VWS V14.01,2013-05-25 20:25:00,
2013-05-25 13:30:00,66.7,37.5,30.00,WSW,248,0.0,0.0,34,0.00,,---,0.00,VWS V14.01,2013-05-25 20:30:00,
2013-05-25 13:35:00,64.2,35.3,30.00,SW,225,0.9,0.9,34,0.00,,---,0.00,VWS V14.01,2013-05-25 20:35:00,
2013-05-25 13:40:00,64.4,35.5,30.00,North,0,0.0,0.0,34,0.00,,---,0.00,VWS V14.01,2013-05-25 20:40:00,
2013-05-25 13:45:00,66.2,37.0,30.00,SSW,202,2.7,2.7,34,0.00,,---,0.00,VWS V14.01,2013-05-25 20:45:00,
2013-05-25 13:50:00,68.5,39.1,30.00,West,270,0.0,0.0,34,0.00,,---,0.00,VWS V14.01,2013-05-25 20:50:00,
2013-05-25 13:55:00,69.6,38.5,30.00,NE,45,2.5,2.5,32,0.00,,---,0.00,VWS V14.01,2013-05-25 20:55:00,
2013-05-25 14:00:00,69.1,38.0,30.00,SE,135,2.0,2.0,32,0.00,,---,0.00,VWS V14.01,2013-05-25 21:00:00,
2013-05-25 14:05:00,67.1,37.1,30.00,SE,135,2.7,2.7,33,0.00,,---,0.00,VWS V14.01,2013-05-25 21:05:00,
2013-05-25 14:10:00,65.5,35.6,30.00,SSW,202,2.5,2.5,33,0.00,,---,0.00,VWS V14.01,2013-05-25 21:10:00,
2013-05-25 14:15:00,66.9,36.9,30.00,SE,135,2.5,2.5,33,0.00,,---,0.00,VWS V14.01,2013-05-25 21:15:00,
2013-05-25 14:20:00,68.2,37.2,30.00,NNE,22,5.4,5.4,32,0.00,,---,0.00,VWS V14.01,2013-05-25 21:20:00,
2013-05-25 14:26:00,66.9,36.9,30.00,SSE,158,0.0,0.0,33,0.00,,---,0.00,VWS V14.01,2013-05-25 21:26:00,
2013-05-25 14:31:00,68.4,37.4,30.00,SSE,158,2.9,2.9,32,0.00,,---,0.00,VWS V14.01,2013-05-25 21:31:00,
2013-05-25 14:36:00,66.9,36.9,30.00,SSE,158,1.1,1.1,33,0.00,,---,0.00,VWS V14.01,2013-05-25 21:36:00,
2013-05-25 14:41:00,65.3,35.5,30.00,South,180,0.0,0.0,33,0.00,,---,0.00,VWS V14.01,2013-05-25 21:41:00,
2013-05-25 14:46:00,66.0,36.1,30.00,East,90,2.7,2.7,33,0.00,,---,0.00,VWS V14.01,2013-05-25 21:46:00,
2013-05-25 14:51:00,65.8,36.0,30.00,NNW,338,0.0,0.0,33,0.00,,---,0.00,VWS V14.01,2013-05-25 21:51:00,
2013-05-25 14:56:00,66.9,36.9,30.00,NNE,22,0.0,0.0,33,0.00,,---,0.00,VWS V14.01,2013-05-25 21:56:00,
2013-05-25 15:01:00,67.5,36.6,30.00,South,180,4.7,4.7,32,0.00,,---,0.00,VWS V14.01,2013-05-25 22:01:00,
2013-05-25 15:06:00,70.3,39.1,30.00,South,180,2.9,2.9,32,0.00,,---,0.00,VWS V14.01,2013-05-25 22:06:00,
2013-05-25 15:11:00,71.1,37.2,30.00,NE,45,2.5,2.5,29,0.00,,---,0.00,VWS V14.01,2013-05-25 22:11:00,
2013-05-25 15:16:00,68.5,34.2,30.00,SSW,202,1.6,1.6,28,0.00,,---,0.00,VWS V14.01,2013-05-25 22:16:00,
2013-05-25 15:21:00,67.3,34.0,30.00,SW,225,3.1,3.1,29,0.00,,---,0.00,VWS V14.01,2013-05-25 22:21:00,
2013-05-25 15:26:00,66.4,34.0,30.00,ESE,112,2.5,2.5,30,0.00,,---,0.00,VWS V14.01,2013-05-25 22:26:00,
2013-05-25 15:31:00,67.1,35.5,30.00,NW,315,0.0,0.0,31,0.00,,---,0.00,VWS V14.01,2013-05-25 22:31:00,
2013-05-25 15:37:00,67.1,34.7,30.00,South,180,3.8,3.8,30,0.00,,---,0.00,VWS V14.01,2013-05-25 22:37:00,
2013-05-25 15:42:00,66.0,34.5,30.00,West,270,0.0,0.0,31,0.00,,---,0.00,VWS V14.01,2013-05-25 22:42:00,
2013-05-25 15:47:00,66.7,34.3,30.00,SSE,158,4.0,4.0,30,0.00,,---,0.00,VWS V14.01,2013-05-25 22:47:00,
2013-05-25 15:52:00,68.2,34.7,30.00,WSW,248,0.0,0.0,29,0.00,,---,0.00,VWS V14.01,2013-05-25 22:52:00,
2013-05-25 15:57:00,67.1,32.9,30.00,SE,135,2.5,2.5,28,0.00,,---,0.00,VWS V14.01,2013-05-25 22:57:00,
2013-05-25 16:02:00,66.2,33.0,30.00,SW,225,4.0,4.0,29,0.00,,---,0.00,VWS V14.01,2013-05-25 23:02:00,
2013-05-25 16:07:00,66.0,33.7,30.00,ESE,112,1.3,1.3,30,0.00,,---,0.00,VWS V14.01,2013-05-25 23:07:00,
2013-05-25 16:12:00,65.5,33.3,30.00,SW,225,1.6,1.6,30,0.00,,---,0.00,VWS V14.01,2013-05-25 23:12:00,
2013-05-25 16:17:00,64.9,32.8,30.00,South,180,0.0,0.0,30,0.00,,---,0.00,VWS V14.01,2013-05-25 23:17:00,
2013-05-25 16:22:00,64.6,32.5,30.00,SW,225,1.6,1.6,30,0.00,,---,0.00,VWS V14.01,2013-05-25 23:22:00,
2013-05-25 16:27:00,64.4,32.3,30.00,SW,225,1.3,1.3,30,0.00,,---,0.00,VWS V14.01,2013-05-25 23:27:00,
2013-05-25 16:32:00,64.0,32.8,30.00,WSW,248,2.9,2.9,31,0.00,,---,0.00,VWS V14.01,2013-05-25 23:32:00,
2013-05-25 16:37:00,63.9,32.7,30.00,South,180,2.7,2.7,31,0.00,,---,0.00,VWS V14.01,2013-05-25 23:37:00,
2013-05-25 16:42:00,64.6,33.3,30.00,SSW,202,2.9,2.9,31,0.00,,---,0.00,VWS V14.01,2013-05-25 23:42:00,
2013-05-25 16:48:00,68.2,36.4,30.00,South,180,3.1,3.1,31,0.00,,---,0.00,VWS V14.01,2013-05-25 23:48:00,
2013-05-25 16:53:00,66.9,35.3,30.00,WSW,248,0.0,0.0,31,0.00,,---,0.00,VWS V14.01,2013-05-25 23:53:00,
2013-05-25 16:58:00,65.5,33.3,30.00,SW,225,2.7,2.7,30,0.00,,---,0.00,VWS V14.01,2013-05-25 23:58:00,
2013-05-25 17:03:00,64.2,32.2,30.00,SSW,202,5.4,5.4,30,0.00,,---,0.00,VWS V14.01,2013-05-26 00:03:00,
2013-05-25 17:08:00,63.5,31.5,30.00,SE,135,0.9,0.9,30,0.00,,---,0.00,VWS V14.01,2013-05-26 00:08:00,
2013-05-25 17:13:00,62.8,31.7,30.00,South,180,2.7,2.7,31,0.00,,---,0.00,VWS V14.01,2013-05-26 00:13:00,
2013-05-25 17:18:00,62.8,31.7,30.00,SW,225,1.1,1.1,31,0.00,,---,0.00,VWS V14.01,2013-05-26 00:18:00,
2013-05-25 17:23:00,62.6,32.3,30.00,SW,225,2.0,2.0,32,0.00,,---,0.00,VWS V14.01,2013-05-26 00:23:00,
2013-05-25 17:28:00,62.4,33.0,30.00,SE,135,0.0,0.0,33,0.00,,---,0.00,VWS V14.01,2013-05-26 00:28:00,
2013-05-25 17:33:00,62.4,33.0,30.00,SSW,202,0.0,0.0,33,0.00,,---,0.00,VWS V14.01,2013-05-26 00:33:00,
2013-05-25 17:38:00,62.1,33.4,30.00,SSW,202,0.0,0.0,34,0.00,,---,0.00,VWS V14.01,2013-05-26 00:38:00,
2013-05-25 17:43:00,62.1,33.4,30.00,SW,225,0.0,0.0,34,0.00,,---,0.00,VWS V14.01,2013-05-26 00:43:00,
2013-05-25 17:48:00,61.9,33.2,30.00,SW,225,0.0,0.0,34,0.00,,---,0.00,VWS V14.01,2013-05-26 00:48:00,
2013-05-25 17:53:00,61.9,33.2,30.00,South,180,0.0,0.0,34,0.00,,---,0.00,VWS V14.01,2013-05-26 00:53:00,
2013-05-25 17:58:00,61.9,33.2,30.00,SSW,202,0.0,0.0,34,0.00,,---,0.00,VWS V14.01,2013-05-26 00:58:00,
2013-05-25 18:04:00,61.7,33.1,30.00,SSW,202,0.0,0.0,34,0.00,,---,0.00,VWS V14.01,2013-05-26 01:04:00,
2013-05-25 18:09:00,61.5,32.9,30.00,South,180,2.5,2.5,34,0.00,,---,0.00,VWS V14.01,2013-05-26 01:09:00,
2013-05-25 18:14:00,61.5,32.9,30.00,SSW,202,3.8,3.8,34,0.00,,---,0.00,VWS V14.01,2013-05-26 01:14:00,
2013-05-25 18:19:00,62.1,33.4,29.97,SW,225,0.0,0.0,34,0.00,,---,0.00,VWS V14.01,2013-05-26 01:19:00,
2013-05-25 18:24:00,62.2,33.5,29.97,SW,225,0.0,0.0,34,0.00,,---,0.00,VWS V14.01,2013-05-26 01:24:00,
2013-05-25 18:29:00,61.7,33.1,29.97,SSW,202,1.1,1.1,34,0.00,,---,0.00,VWS V14.01,2013-05-26 01:29:00,
2013-05-25 18:34:00,61.9,33.2,29.97,South,180,1.1,1.1,34,0.00,,---,0.00,VWS V14.01,2013-05-26 01:34:00,
2013-05-25 18:39:00,62.1,33.4,29.97,SSE,158,3.6,3.6,34,0.00,,---,0.00,VWS V14.01,2013-05-26 01:39:00,
2013-05-25 18:44:00,62.4,33.7,29.97,South,180,0.0,0.0,34,0.00,,---,0.00,VWS V14.01,2013-05-26 01:44:00,
2013-05-25 18:49:00,62.4,33.7,29.97,SSW,202,0.0,0.0,34,0.00,,---,0.00,VWS V14.01,2013-05-26 01:49:00,
2013-05-25 18:54:00,62.2,33.5,29.97,South,180,0.0,0.0,34,0.00,,---,0.00,VWS V14.01,2013-05-26 01:54:00,
2013-05-25 18:59:00,62.1,33.4,29.97,NE,45,2.5,2.5,34,0.00,,---,0.00,VWS V14.01,2013-05-26 01:59:00,
2013-05-25 19:04:00,62.1,33.4,29.97,South,180,2.5,2.5,34,0.00,,---,0.00,VWS V14.01,2013-05-26 02:04:00,
2013-05-25 19:09:00,61.3,32.8,29.97,SSW,202,2.0,2.0,34,0.00,,---,0.00,VWS V14.01,2013-05-26 02:09:00,
2013-05-25 19:14:00,60.6,32.1,29.97,South,180,2.0,2.0,34,0.00,,---,0.00,VWS V14.01,2013-05-26 02:14:00,
2013-05-25 19:20:00,60.4,32.0,29.97,SW,225,0.0,0.0,34,0.00,,---,0.00,VWS V14.01,2013-05-26 02:20:00,
2013-05-25 19:25:00,59.7,32.0,29.97,SSW,202,0.0,0.0,35,0.00,,---,0.00,VWS V14.01,2013-05-26 02:25:00,
2013-05-25 19:30:00,59.4,31.7,29.97,SE,135,1.6,1.6,35,0.00,,---,0.00,VWS V14.01,2013-05-26 02:30:00,
2013-05-25 19:35:00,59.4,31.7,29.97,SSW,202,0.0,0.0,35,0.00,,---,0.00,VWS V14.01,2013-05-26 02:35:00,
2013-05-25 19:40:00,59.2,31.6,29.97,SW,225,0.0,0.0,35,0.00,,---,0.00,VWS V14.01,2013-05-26 02:40:00,
2013-05-25 19:45:00,58.8,32.0,29.97,SSW,202,0.0,0.0,36,0.00,,---,0.00,VWS V14.01,2013-05-26 02:45:00,
2013-05-25 19:50:00,58.6,31.8,29.97,SSW,202,0.0,0.0,36,0.00,,---,0.00,VWS V14.01,2013-05-26 02:50:00,
2013-05-25 19:55:00,58.3,32.2,29.97,SSW,202,0.0,0.0,37,0.00,,---,0.00,VWS V14.01,2013-05-26 02:55:00,
2013-05-25 20:00:00,57.9,31.8,29.97,SSW,202,0.0,0.0,37,0.00,,---,0.00,VWS V14.01,2013-05-26 03:00:00,
2013-05-25 20:05:00,57.4,32.0,29.97,SSW,202,0.0,0.0,38,0.00,,---,0.00,VWS V14.01,2013-05-26 03:05:00,
2013-05-25 20:10:00,57.0,33.0,29.97,SSW,202,0.0,0.0,40,0.00,,---,0.00,VWS V14.01,2013-05-26 03:10:00,
2013-05-25 20:15:00,56.7,33.2,29.97,SSW,202,0.0,0.0,41,0.00,,---,0.00,VWS V14.01,2013-05-26 03:15:00,
2013-05-25 20:20:00,56.1,33.4,29.97,SSW,202,0.0,0.0,42,0.00,,---,0.00,VWS V14.01,2013-05-26 03:20:00,
2013-05-25 20:25:00,55.6,33.5,29.97,SSW,202,0.0,0.0,43,0.00,,---,0.00,VWS V14.01,2013-05-26 03:25:00,
2013-05-25 20:30:00,55.0,35.2,29.97,South,180,2.7,2.7,47,0.00,,---,0.00,VWS V14.01,2013-05-26 03:30:00,
2013-05-25 20:35:00,54.3,34.5,29.97,SSW,202,2.0,2.0,47,0.00,,---,0.00,VWS V14.01,2013-05-26 03:35:00,
2013-05-25 20:41:00,53.8,34.6,29.97,SSW,202,3.6,3.6,48,0.00,,---,0.00,VWS V14.01,2013-05-26 03:41:00,
2013-05-25 20:46:00,53.2,35.1,29.97,South,180,3.4,3.4,50,0.00,,---,0.00,VWS V14.01,2013-05-26 03:46:00,
2013-05-25 20:51:00,52.9,34.8,29.97,SSW,202,2.9,2.9,50,0.00,,---,0.00,VWS V14.01,2013-05-26 03:51:00,
2013-05-25 20:56:00,52.7,35.1,29.97,South,180,2.5,2.5,51,0.00,,---,0.00,VWS V14.01,2013-05-26 03:56:00,
2013-05-25 21:01:00,52.0,34.4,29.97,South,180,2.9,2.9,51,0.00,,---,0.00,VWS V14.01,2013-05-26 04:01:00,
2013-05-25 21:02:00,52.0,34.4,29.97,South,180,2.0,2.0,51,0.00,,---,0.00,VWS V14.01,2013-05-26 04:02:00,
2013-05-25 21:07:00,51.6,35.1,29.97,South,180,3.1,3.1,53,0.00,,---,0.00,VWS V14.01,2013-05-26 04:07:00,
2013-05-25 21:12:00,51.4,34.9,29.97,South,180,2.9,2.9,53,0.00,,---,0.00,VWS V14.01,2013-05-26 04:12:00,
2013-05-25 21:17:00,51.1,34.6,29.97,South,180,3.8,3.8,53,0.00,,---,0.00,VWS V14.01,2013-05-26 04:17:00,
2013-05-25 21:22:00,50.9,34.4,29.97,South,180,2.2,2.2,53,0.00,,---,0.00,VWS V14.01,2013-05-26 04:22:00,
2013-05-25 21:27:00,50.4,33.9,29.97,SSW,202,0.0,0.0,53,0.00,,---,0.00,VWS V14.01,2013-05-26 04:27:00,
2013-05-25 21:32:00,49.6,33.2,29.97,South,180,0.0,0.0,53,0.00,,---,0.00,VWS V14.01,2013-05-26 04:32:00,
2013-05-25 21:37:00,49.1,32.7,29.97,SSE,158,0.0,0.0,53,0.00,,---,0.00,VWS V14.01,2013-05-26 04:37:00,
2013-05-25 21:43:00,48.7,32.8,29.97,South,180,0.0,0.0,54,0.00,,---,0.00,VWS V14.01,2013-05-26 04:43:00,
2013-05-25 21:48:00,48.4,33.4,29.97,South,180,0.0,0.0,56,0.00,,---,0.00,VWS V14.01,2013-05-26 04:48:00,
2013-05-25 21:53:00,48.4,33.0,29.97,SSW,202,0.0,0.0,55,0.00,,---,0.00,VWS V14.01,2013-05-26 04:53:00,
2013-05-25 21:58:00,48.2,33.3,29.97,SSW,202,0.0,0.0,56,0.00,,---,0.00,VWS V14.01,2013-05-26 04:58:00,
2013-05-25 22:03:00,48.4,33.4,29.97,SSW,202,0.0,0.0,56,0.00,,---,0.00,VWS V14.01,2013-05-26 05:03:00,
2013-05-25 22:08:00,48.2,33.7,29.97,SW,225,0.0,0.0,57,0.00,,---,0.00,VWS V14.01,2013-05-26 05:08:00,
2013-05-25 22:13:00,47.7,33.6,29.97,SW,225,0.0,0.0,58,0.00,,---,0.00,VWS V14.01,2013-05-26 05:13:00,
2013-05-25 22:18:00,47.5,33.9,30.00,SW,225,0.0,0.0,59,0.00,,---,0.00,VWS V14.01,2013-05-26 05:18:00,
2013-05-25 22:23:00,47.3,33.7,30.00,SW,225,0.0,0.0,59,0.00,,---,0.00,VWS V14.01,2013-05-26 05:23:00,
2013-05-25 22:28:00,47.1,33.5,30.00,SSW,202,2.0,2.0,59,0.00,,---,0.00,VWS V14.01,2013-05-26 05:28:00,
2013-05-25 22:33:00,46.9,34.2,30.00,SW,225,0.0,0.0,61,0.00,,---,0.00,VWS V14.01,2013-05-26 05:33:00,
2013-05-25 22:38:00,46.9,34.2,30.00,SW,225,0.0,0.0,61,0.00,,---,0.00,VWS V14.01,2013-05-26 05:38:00,
2013-05-25 22:43:00,46.8,34.4,30.00,SW,225,0.0,0.0,62,0.00,,---,0.00,VWS V14.01,2013-05-26 05:43:00,
2013-05-25 22:48:00,46.9,34.6,29.97,NNW,338,0.0,0.0,62,0.00,,---,0.00,VWS V14.01,2013-05-26 05:48:00,
2013-05-25 22:53:00,47.1,34.8,29.97,South,180,0.0,0.0,62,0.00,,---,0.00,VWS V14.01,2013-05-26 05:53:00,
2013-05-25 22:58:00,46.9,34.6,29.97,SSW,202,0.0,0.0,62,0.00,,---,0.00,VWS V14.01,2013-05-26 05:58:00,
2013-05-25 23:03:00,46.9,34.6,30.00,South,180,0.0,0.0,62,0.00,,---,0.00,VWS V14.01,2013-05-26 06:03:00,
2013-05-25 23:08:00,47.1,35.2,30.00,South,180,0.0,0.0,63,0.00,,---,0.00,VWS V14.01,2013-05-26 06:08:00,
2013-05-25 23:13:00,47.3,35.4,30.00,SSW,202,0.0,0.0,63,0.00,,---,0.00,VWS V14.01,2013-05-26 06:13:00,
2013-05-25 23:18:00,47.5,35.5,30.00,South,180,0.0,0.0,63,0.00,,---,0.00,VWS V14.01,2013-05-26 06:18:00,
2013-05-25 23:24:00,47.8,35.9,30.00,SSW,202,0.0,0.0,63,0.00,,---,0.00,VWS V14.01,2013-05-26 06:24:00,
2013-05-25 23:29:00,48.2,36.6,30.00,SSW,202,2.0,2.0,64,0.00,,---,0.00,VWS V14.01,2013-05-26 06:29:00,
2013-05-25 23:34:00,48.4,36.4,30.00,SW,225,0.0,0.0,63,0.00,,---,0.00,VWS V14.01,2013-05-26 06:34:00,
2013-05-25 23:39:00,48.6,36.5,30.00,SSW,202,0.0,0.0,63,0.00,,---,0.00,VWS V14.01,2013-05-26 06:39:00,
2013-05-25 23:44:00,48.7,36.3,30.00,South,180,4.0,4.0,62,0.00,,---,0.00,VWS V14.01,2013-05-26 06:44:00,
2013-05-25 23:49:00,48.9,36.5,30.00,SSW,202,0.0,0.0,62,0.00,,---,0.00,VWS V14.01,2013-05-26 06:49:00,
2013-05-25 23:54:00,48.9,36.5,30.00,SSW,202,3.4,3.4,62,0.00,,---,0.00,VWS V14.01,2013-05-26 06:54:00,
2013-05-25 23:59:00,49.1,37.1,30.00,SSW,202,2.2,2.2,63,0.00,,---,0.00,VWS V14.01,2013-05-26 06:59:00,